sensor_id;sensor_type;location;lat;lon;timestamp;P1;durP1;ratioP1;P2;durP2;ratioP2
73452;SDS011;61687;56.232;43.854;2023-04-10T00:01:14;103.33;;;40.83;;
73452;SDS011;61687;56.232;43.854;2023-04-10T00:03:40;91.30;;;38.38;;
73452;SDS011;61687;56.232;43.854;2023-04-10T00:06:07;97.03;;;39.55;;
73452;SDS011;61687;56.232;43.854;2023-04-10T00:08:33;99.45;;;39.35;;
73452;SDS011;61687;56.232;43.854;2023-04-10T00:10:59;99.60;;;39.53;;
73452;SDS011;61687;56.232;43.854;2023-04-10T00:13:24;104.10;;;39.20;;
73452;SDS011;61687;56.232;43.854;2023-04-10T00:15:50;94.90;;;37.70;;
73452;SDS011;61687;56.232;43.854;2023-04-10T00:18:16;96.30;;;41.03;;
73452;SDS011;61687;56.232;43.854;2023-04-10T00:20:42;106.80;;;37.03;;
73452;SDS011;61687;56.232;43.854;2023-04-10T00:23:08;113.28;;;40.95;;
73452;SDS011;61687;56.232;43.854;2023-04-10T00:25:34;109.75;;;40.72;;
73452;SDS011;61687;56.232;43.854;2023-04-10T00:28:00;105.47;;;38.87;;
73452;SDS011;61687;56.232;43.854;2023-04-10T00:30:26;100.63;;;40.45;;
73452;SDS011;61687;56.232;43.854;2023-04-10T00:32:52;98.43;;;39.47;;
73452;SDS011;61687;56.232;43.854;2023-04-10T00:35:18;97.20;;;35.42;;
73452;SDS011;61687;56.232;43.854;2023-04-10T00:37:44;102.23;;;38.57;;
73452;SDS011;61687;56.232;43.854;2023-04-10T00:40:10;106.20;;;39.38;;
73452;SDS011;61687;56.232;43.854;2023-04-10T00:42:37;100.70;;;38.00;;
73452;SDS011;61687;56.232;43.854;2023-04-10T00:45:05;98.55;;;38.78;;
73452;SDS011;61687;56.232;43.854;2023-04-10T00:47:31;99.55;;;37.55;;
73452;SDS011;61687;56.232;43.854;2023-04-10T00:49:58;98.45;;;39.03;;
73452;SDS011;61687;56.232;43.854;2023-04-10T00:52:24;94.07;;;38.50;;
73452;SDS011;61687;56.232;43.854;2023-04-10T00:54:51;93.05;;;36.85;;
73452;SDS011;61687;56.232;43.854;2023-04-10T00:57:17;89.45;;;38.25;;
73452;SDS011;61687;56.232;43.854;2023-04-10T00:59:43;94.83;;;37.40;;
73452;SDS011;61687;56.232;43.854;2023-04-10T01:02:09;97.47;;;37.85;;
73452;SDS011;61687;56.232;43.854;2023-04-10T01:04:37;95.07;;;39.03;;
73452;SDS011;61687;56.232;43.854;2023-04-10T01:07:08;90.45;;;38.42;;
73452;SDS011;61687;56.232;43.854;2023-04-10T01:09:40;94.35;;;37.22;;
73452;SDS011;61687;56.232;43.854;2023-04-10T01:30:58;91.82;;;36.00;;
73452;SDS011;61687;56.232;43.854;2023-04-10T01:33:27;86.10;;;36.63;;
73452;SDS011;61687;56.232;43.854;2023-04-10T01:35:58;91.47;;;35.95;;
73452;SDS011;61687;56.232;43.854;2023-04-10T01:38:29;98.97;;;35.37;;
73452;SDS011;61687;56.232;43.854;2023-04-10T01:40:57;83.35;;;35.20;;
73452;SDS011;61687;56.232;43.854;2023-04-10T01:43:28;92.53;;;36.78;;
73452;SDS011;61687;56.232;43.854;2023-04-10T01:45:56;81.38;;;35.28;;
73452;SDS011;61687;56.232;43.854;2023-04-10T01:48:24;85.63;;;35.95;;
73452;SDS011;61687;56.232;43.854;2023-04-10T01:50:50;84.03;;;36.23;;
73452;SDS011;61687;56.232;43.854;2023-04-10T01:53:19;87.60;;;35.35;;
73452;SDS011;61687;56.232;43.854;2023-04-10T01:55:45;93.95;;;37.13;;
73452;SDS011;61687;56.232;43.854;2023-04-10T01:58:13;82.47;;;37.25;;
73452;SDS011;61687;56.232;43.854;2023-04-10T02:00:40;97.97;;;37.38;;
73452;SDS011;61687;56.232;43.854;2023-04-10T02:03:12;96.03;;;38.23;;
73452;SDS011;61687;56.232;43.854;2023-04-10T02:05:47;100.30;;;38.38;;
73452;SDS011;61687;56.232;43.854;2023-04-10T02:08:36;94.45;;;37.42;;
73452;SDS011;61687;56.232;43.854;2023-04-10T02:13:49;102.15;;;38.47;;
73452;SDS011;61687;56.232;43.854;2023-04-10T02:16:18;127.13;;;36.50;;
73452;SDS011;61687;56.232;43.854;2023-04-10T02:18:47;110.65;;;37.75;;
73452;SDS011;61687;56.232;43.854;2023-04-10T02:21:15;106.45;;;39.40;;
73452;SDS011;61687;56.232;43.854;2023-04-10T02:23:41;97.13;;;38.35;;
73452;SDS011;61687;56.232;43.854;2023-04-10T02:26:07;108.77;;;38.77;;
73452;SDS011;61687;56.232;43.854;2023-04-10T02:28:36;105.60;;;39.10;;
73452;SDS011;61687;56.232;43.854;2023-04-10T02:31:05;95.18;;;36.78;;
73452;SDS011;61687;56.232;43.854;2023-04-10T02:33:32;89.05;;;36.30;;
73452;SDS011;61687;56.232;43.854;2023-04-10T02:35:59;86.43;;;35.40;;
73452;SDS011;61687;56.232;43.854;2023-04-10T02:38:25;87.80;;;35.70;;
73452;SDS011;61687;56.232;43.854;2023-04-10T02:40:52;89.63;;;34.95;;
73452;SDS011;61687;56.232;43.854;2023-04-10T02:43:18;97.32;;;37.10;;
73452;SDS011;61687;56.232;43.854;2023-04-10T02:45:45;116.97;;;37.55;;
73452;SDS011;61687;56.232;43.854;2023-04-10T02:48:17;116.18;;;38.78;;
73452;SDS011;61687;56.232;43.854;2023-04-10T02:50:54;115.63;;;37.83;;
73452;SDS011;61687;56.232;43.854;2023-04-10T02:53:21;114.97;;;36.95;;
73452;SDS011;61687;56.232;43.854;2023-04-10T02:55:51;97.13;;;37.47;;
73452;SDS011;61687;56.232;43.854;2023-04-10T02:58:19;91.82;;;36.17;;
73452;SDS011;61687;56.232;43.854;2023-04-10T03:00:47;90.30;;;36.83;;
73452;SDS011;61687;56.232;43.854;2023-04-10T03:03:21;94.27;;;34.70;;
73452;SDS011;61687;56.232;43.854;2023-04-10T03:05:52;88.97;;;36.08;;
73452;SDS011;61687;56.232;43.854;2023-04-10T03:08:24;91.45;;;36.63;;
73452;SDS011;61687;56.232;43.854;2023-04-10T03:10:50;95.15;;;37.83;;
73452;SDS011;61687;56.232;43.854;2023-04-10T03:13:16;104.27;;;37.30;;
73452;SDS011;61687;56.232;43.854;2023-04-10T03:15:42;92.65;;;38.35;;
73452;SDS011;61687;56.232;43.854;2023-04-10T03:18:08;99.00;;;39.20;;
73452;SDS011;61687;56.232;43.854;2023-04-10T03:20:35;95.15;;;36.88;;
73452;SDS011;61687;56.232;43.854;2023-04-10T03:23:02;98.97;;;39.53;;
73452;SDS011;61687;56.232;43.854;2023-04-10T03:25:29;104.88;;;40.33;;
73452;SDS011;61687;56.232;43.854;2023-04-10T03:27:56;100.85;;;35.60;;
73452;SDS011;61687;56.232;43.854;2023-04-10T03:30:22;80.57;;;32.40;;
73452;SDS011;61687;56.232;43.854;2023-04-10T03:32:48;72.47;;;28.83;;
73452;SDS011;61687;56.232;43.854;2023-04-10T03:35:14;94.88;;;31.10;;
73452;SDS011;61687;56.232;43.854;2023-04-10T03:37:40;77.93;;;29.25;;
73452;SDS011;61687;56.232;43.854;2023-04-10T03:40:07;55.33;;;20.88;;
73452;SDS011;61687;56.232;43.854;2023-04-10T03:42:34;67.68;;;22.13;;
73452;SDS011;61687;56.232;43.854;2023-04-10T03:45:01;58.22;;;20.52;;
73452;SDS011;61687;56.232;43.854;2023-04-10T03:47:29;49.88;;;17.75;;
73452;SDS011;61687;56.232;43.854;2023-04-10T03:49:57;41.70;;;17.00;;
73452;SDS011;61687;56.232;43.854;2023-04-10T03:52:24;62.50;;;16.23;;
73452;SDS011;61687;56.232;43.854;2023-04-10T03:54:53;39.38;;;15.63;;
73452;SDS011;61687;56.232;43.854;2023-04-10T03:57:25;42.95;;;15.05;;
73452;SDS011;61687;56.232;43.854;2023-04-10T03:59:57;41.75;;;15.07;;
73452;SDS011;61687;56.232;43.854;2023-04-10T04:02:25;40.83;;;15.55;;
73452;SDS011;61687;56.232;43.854;2023-04-10T04:04:52;33.42;;;14.77;;
73452;SDS011;61687;56.232;43.854;2023-04-10T04:07:38;37.33;;;14.98;;
73452;SDS011;61687;56.232;43.854;2023-04-10T04:10:16;39.78;;;14.15;;
73452;SDS011;61687;56.232;43.854;2023-04-10T04:12:58;40.40;;;14.82;;
73452;SDS011;61687;56.232;43.854;2023-04-10T04:15:36;46.70;;;14.68;;
73452;SDS011;61687;56.232;43.854;2023-04-10T04:18:20;43.28;;;14.85;;
73452;SDS011;61687;56.232;43.854;2023-04-10T04:20:51;37.83;;;14.32;;
73452;SDS011;61687;56.232;43.854;2023-04-10T04:23:37;39.47;;;16.13;;
73452;SDS011;61687;56.232;43.854;2023-04-10T04:26:10;38.75;;;14.85;;
73452;SDS011;61687;56.232;43.854;2023-04-10T04:28:49;39.42;;;14.60;;
73452;SDS011;61687;56.232;43.854;2023-04-10T04:31:15;44.00;;;14.98;;
73452;SDS011;61687;56.232;43.854;2023-04-10T04:34:01;39.70;;;14.05;;
73452;SDS011;61687;56.232;43.854;2023-04-10T04:36:30;45.88;;;13.82;;
73452;SDS011;61687;56.232;43.854;2023-04-10T04:39:11;45.13;;;15.68;;
73452;SDS011;61687;56.232;43.854;2023-04-10T04:41:49;38.55;;;15.40;;
73452;SDS011;61687;56.232;43.854;2023-04-10T04:44:29;39.47;;;14.85;;
73452;SDS011;61687;56.232;43.854;2023-04-10T04:47:06;39.58;;;15.30;;
73452;SDS011;61687;56.232;43.854;2023-04-10T04:50:04;29.05;;;13.32;;
73452;SDS011;61687;56.232;43.854;2023-04-10T04:52:59;40.15;;;13.32;;
73452;SDS011;61687;56.232;43.854;2023-04-10T04:55:45;33.55;;;14.23;;
73452;SDS011;61687;56.232;43.854;2023-04-10T04:58:35;44.60;;;14.57;;
73452;SDS011;61687;56.232;43.854;2023-04-10T05:01:27;38.53;;;14.95;;
73452;SDS011;61687;56.232;43.854;2023-04-10T05:04:13;47.85;;;15.13;;
73452;SDS011;61687;56.232;43.854;2023-04-10T05:06:51;33.35;;;14.25;;
73452;SDS011;61687;56.232;43.854;2023-04-10T05:09:34;40.97;;;14.73;;
73452;SDS011;61687;56.232;43.854;2023-04-10T05:12:19;64.28;;;16.52;;
73452;SDS011;61687;56.232;43.854;2023-04-10T05:14:53;40.38;;;14.75;;
73452;SDS011;61687;56.232;43.854;2023-04-10T05:17:31;37.78;;;16.02;;
73452;SDS011;61687;56.232;43.854;2023-04-10T05:20:35;38.42;;;16.20;;
73452;SDS011;61687;56.232;43.854;2023-04-10T05:23:20;43.00;;;16.20;;
73452;SDS011;61687;56.232;43.854;2023-04-10T05:26:15;39.60;;;16.52;;
73452;SDS011;61687;56.232;43.854;2023-04-10T05:28:59;68.07;;;16.88;;
73452;SDS011;61687;56.232;43.854;2023-04-10T05:31:44;43.67;;;15.10;;
73452;SDS011;61687;56.232;43.854;2023-04-10T05:34:14;36.13;;;14.23;;
73452;SDS011;61687;56.232;43.854;2023-04-10T05:37:09;39.90;;;14.50;;
73452;SDS011;61687;56.232;43.854;2023-04-10T05:40:03;37.05;;;15.43;;
73452;SDS011;61687;56.232;43.854;2023-04-10T05:42:34;39.97;;;13.85;;
73452;SDS011;61687;56.232;43.854;2023-04-10T05:45:18;37.85;;;13.50;;
73452;SDS011;61687;56.232;43.854;2023-04-10T05:48:00;43.75;;;13.05;;
73452;SDS011;61687;56.232;43.854;2023-04-10T05:50:45;44.60;;;14.03;;
73452;SDS011;61687;56.232;43.854;2023-04-10T05:53:17;38.75;;;13.13;;
73452;SDS011;61687;56.232;43.854;2023-04-10T05:56:03;32.03;;;12.77;;
73452;SDS011;61687;56.232;43.854;2023-04-10T05:58:58;33.33;;;12.93;;
73452;SDS011;61687;56.232;43.854;2023-04-10T06:01:39;32.25;;;12.43;;
73452;SDS011;61687;56.232;43.854;2023-04-10T06:04:06;39.87;;;11.70;;
73452;SDS011;61687;56.232;43.854;2023-04-10T06:06:33;34.97;;;11.77;;
73452;SDS011;61687;56.232;43.854;2023-04-10T06:08:59;38.33;;;10.35;;
73452;SDS011;61687;56.232;43.854;2023-04-10T06:11:25;48.97;;;12.48;;
73452;SDS011;61687;56.232;43.854;2023-04-10T06:13:53;31.93;;;11.50;;
73452;SDS011;61687;56.232;43.854;2023-04-10T06:16:25;28.95;;;10.68;;
73452;SDS011;61687;56.232;43.854;2023-04-10T06:18:53;25.52;;;11.65;;
73452;SDS011;61687;56.232;43.854;2023-04-10T06:21:18;34.47;;;11.88;;
73452;SDS011;61687;56.232;43.854;2023-04-10T06:23:45;34.85;;;12.50;;
73452;SDS011;61687;56.232;43.854;2023-04-10T06:26:11;194.63;;;22.10;;
73452;SDS011;61687;56.232;43.854;2023-04-10T06:28:37;39.95;;;12.50;;
73452;SDS011;61687;56.232;43.854;2023-04-10T06:31:05;30.33;;;12.00;;
73452;SDS011;61687;56.232;43.854;2023-04-10T06:33:34;43.80;;;12.13;;
73452;SDS011;61687;56.232;43.854;2023-04-10T06:36:02;43.50;;;11.70;;
73452;SDS011;61687;56.232;43.854;2023-04-10T06:38:33;34.30;;;12.45;;
73452;SDS011;61687;56.232;43.854;2023-04-10T06:41:03;33.13;;;11.65;;
73452;SDS011;61687;56.232;43.854;2023-04-10T06:43:32;43.85;;;12.23;;
73452;SDS011;61687;56.232;43.854;2023-04-10T06:45:58;33.25;;;12.25;;
73452;SDS011;61687;56.232;43.854;2023-04-10T06:48:24;25.07;;;9.17;;
73452;SDS011;61687;56.232;43.854;2023-04-10T06:50:50;35.22;;;10.93;;
73452;SDS011;61687;56.232;43.854;2023-04-10T06:53:16;23.65;;;9.55;;
73452;SDS011;61687;56.232;43.854;2023-04-10T06:55:42;32.93;;;9.80;;
73452;SDS011;61687;56.232;43.854;2023-04-10T06:58:08;44.05;;;11.15;;
73452;SDS011;61687;56.232;43.854;2023-04-10T07:00:33;26.47;;;9.17;;
73452;SDS011;61687;56.232;43.854;2023-04-10T07:02:59;28.85;;;9.38;;
73452;SDS011;61687;56.232;43.854;2023-04-10T07:05:25;21.00;;;6.10;;
73452;SDS011;61687;56.232;43.854;2023-04-10T07:07:51;18.00;;;6.93;;
73452;SDS011;61687;56.232;43.854;2023-04-10T07:10:18;22.08;;;8.32;;
73452;SDS011;61687;56.232;43.854;2023-04-10T07:12:44;17.17;;;7.60;;
73452;SDS011;61687;56.232;43.854;2023-04-10T07:15:10;12.32;;;5.97;;
73452;SDS011;61687;56.232;43.854;2023-04-10T07:17:37;11.77;;;5.38;;
73452;SDS011;61687;56.232;43.854;2023-04-10T07:20:03;20.55;;;5.50;;
73452;SDS011;61687;56.232;43.854;2023-04-10T07:22:29;28.93;;;5.53;;
73452;SDS011;61687;56.232;43.854;2023-04-10T07:24:56;16.42;;;5.07;;
73452;SDS011;61687;56.232;43.854;2023-04-10T07:27:23;10.77;;;5.28;;
73452;SDS011;61687;56.232;43.854;2023-04-10T07:29:51;18.67;;;4.95;;
73452;SDS011;61687;56.232;43.854;2023-04-10T07:32:19;21.35;;;6.13;;
73452;SDS011;61687;56.232;43.854;2023-04-10T07:34:46;8.63;;;4.20;;
73452;SDS011;61687;56.232;43.854;2023-04-10T07:37:12;13.07;;;4.20;;
73452;SDS011;61687;56.232;43.854;2023-04-10T07:39:38;9.27;;;4.65;;
73452;SDS011;61687;56.232;43.854;2023-04-10T07:42:04;12.40;;;5.43;;
73452;SDS011;61687;56.232;43.854;2023-04-10T07:44:30;20.48;;;6.05;;
73452;SDS011;61687;56.232;43.854;2023-04-10T07:46:56;15.70;;;5.20;;
73452;SDS011;61687;56.232;43.854;2023-04-10T07:49:23;12.55;;;5.55;;
73452;SDS011;61687;56.232;43.854;2023-04-10T07:51:49;13.45;;;5.25;;
73452;SDS011;61687;56.232;43.854;2023-04-10T07:54:15;17.25;;;5.57;;
73452;SDS011;61687;56.232;43.854;2023-04-10T07:56:40;11.87;;;5.40;;
73452;SDS011;61687;56.232;43.854;2023-04-10T07:59:07;9.45;;;4.93;;
73452;SDS011;61687;56.232;43.854;2023-04-10T08:01:32;10.13;;;5.00;;
73452;SDS011;61687;56.232;43.854;2023-04-10T08:03:58;11.70;;;5.30;;
73452;SDS011;61687;56.232;43.854;2023-04-10T08:06:25;11.85;;;5.65;;
73452;SDS011;61687;56.232;43.854;2023-04-10T08:08:50;11.48;;;5.35;;
73452;SDS011;61687;56.232;43.854;2023-04-10T08:13:51;47.57;;;6.73;;
73452;SDS011;61687;56.232;43.854;2023-04-10T08:16:18;11.68;;;5.22;;
73452;SDS011;61687;56.232;43.854;2023-04-10T08:18:47;10.63;;;5.28;;
73452;SDS011;61687;56.232;43.854;2023-04-10T08:21:13;9.05;;;4.93;;
73452;SDS011;61687;56.232;43.854;2023-04-10T08:23:38;12.13;;;4.73;;
73452;SDS011;61687;56.232;43.854;2023-04-10T08:26:04;8.38;;;5.10;;
73452;SDS011;61687;56.232;43.854;2023-04-10T08:28:31;13.18;;;5.32;;
73452;SDS011;61687;56.232;43.854;2023-04-10T08:30:56;11.00;;;4.50;;
73452;SDS011;61687;56.232;43.854;2023-04-10T08:33:22;8.37;;;4.17;;
73452;SDS011;61687;56.232;43.854;2023-04-10T08:35:48;10.45;;;4.95;;
73452;SDS011;61687;56.232;43.854;2023-04-10T08:38:14;12.67;;;5.57;;
73452;SDS011;61687;56.232;43.854;2023-04-10T08:40:40;13.33;;;5.37;;
73452;SDS011;61687;56.232;43.854;2023-04-10T08:43:06;7.30;;;4.25;;
73452;SDS011;61687;56.232;43.854;2023-04-10T08:45:32;16.55;;;4.97;;
73452;SDS011;61687;56.232;43.854;2023-04-10T08:47:59;10.77;;;4.47;;
73452;SDS011;61687;56.232;43.854;2023-04-10T08:50:30;8.93;;;4.40;;
73452;SDS011;61687;56.232;43.854;2023-04-10T08:52:59;9.98;;;5.22;;
73452;SDS011;61687;56.232;43.854;2023-04-10T08:55:32;9.52;;;5.00;;
73452;SDS011;61687;56.232;43.854;2023-04-10T08:58:00;9.95;;;5.40;;
73452;SDS011;61687;56.232;43.854;2023-04-10T09:00:27;9.17;;;5.20;;
73452;SDS011;61687;56.232;43.854;2023-04-10T09:02:53;11.13;;;4.85;;
73452;SDS011;61687;56.232;43.854;2023-04-10T09:05:28;14.82;;;5.75;;
73452;SDS011;61687;56.232;43.854;2023-04-10T09:07:54;15.88;;;6.00;;
73452;SDS011;61687;56.232;43.854;2023-04-10T09:10:20;9.93;;;5.70;;
73452;SDS011;61687;56.232;43.854;2023-04-10T09:12:46;13.05;;;5.78;;
73452;SDS011;61687;56.232;43.854;2023-04-10T09:15:13;12.70;;;4.95;;
73452;SDS011;61687;56.232;43.854;2023-04-10T09:20:22;16.55;;;5.78;;
73452;SDS011;61687;56.232;43.854;2023-04-10T09:22:48;13.53;;;5.47;;
73452;SDS011;61687;56.232;43.854;2023-04-10T09:25:28;13.65;;;5.85;;
73452;SDS011;61687;56.232;43.854;2023-04-10T09:28:06;9.13;;;5.55;;
73452;SDS011;61687;56.232;43.854;2023-04-10T09:33:02;12.13;;;5.82;;
73452;SDS011;61687;56.232;43.854;2023-04-10T09:35:37;11.63;;;5.83;;
73452;SDS011;61687;56.232;43.854;2023-04-10T09:38:16;11.25;;;5.07;;
73452;SDS011;61687;56.232;43.854;2023-04-10T09:40:43;10.60;;;5.70;;
73452;SDS011;61687;56.232;43.854;2023-04-10T09:43:20;11.45;;;4.80;;
73452;SDS011;61687;56.232;43.854;2023-04-10T09:45:50;11.57;;;5.35;;
73452;SDS011;61687;56.232;43.854;2023-04-10T09:48:18;10.63;;;4.83;;
73452;SDS011;61687;56.232;43.854;2023-04-10T09:50:45;10.68;;;5.45;;
73452;SDS011;61687;56.232;43.854;2023-04-10T09:53:11;10.95;;;5.80;;
73452;SDS011;61687;56.232;43.854;2023-04-10T09:55:43;14.10;;;5.53;;
73452;SDS011;61687;56.232;43.854;2023-04-10T09:58:10;15.07;;;5.60;;
73452;SDS011;61687;56.232;43.854;2023-04-10T10:00:40;12.37;;;5.80;;
73452;SDS011;61687;56.232;43.854;2023-04-10T10:03:07;14.88;;;5.72;;
73452;SDS011;61687;56.232;43.854;2023-04-10T10:05:36;10.63;;;6.20;;
73452;SDS011;61687;56.232;43.854;2023-04-10T10:08:15;13.05;;;5.80;;
73452;SDS011;61687;56.232;43.854;2023-04-10T10:10:48;16.73;;;6.50;;
73452;SDS011;61687;56.232;43.854;2023-04-10T10:16:00;16.30;;;5.82;;
73452;SDS011;61687;56.232;43.854;2023-04-10T10:18:38;9.18;;;5.30;;
73452;SDS011;61687;56.232;43.854;2023-04-10T10:21:07;12.35;;;5.63;;
73452;SDS011;61687;56.232;43.854;2023-04-10T10:23:35;15.80;;;6.25;;
73452;SDS011;61687;56.232;43.854;2023-04-10T10:26:04;11.93;;;5.47;;
73452;SDS011;61687;56.232;43.854;2023-04-10T10:28:32;13.80;;;5.97;;
73452;SDS011;61687;56.232;43.854;2023-04-10T10:31:02;9.45;;;5.82;;
73452;SDS011;61687;56.232;43.854;2023-04-10T10:33:28;12.45;;;5.68;;
73452;SDS011;61687;56.232;43.854;2023-04-10T10:36:01;15.63;;;5.68;;
73452;SDS011;61687;56.232;43.854;2023-04-10T10:38:29;11.63;;;5.87;;
73452;SDS011;61687;56.232;43.854;2023-04-10T10:49:16;12.00;;;5.68;;
73452;SDS011;61687;56.232;43.854;2023-04-10T10:51:49;15.47;;;6.23;;
73452;SDS011;61687;56.232;43.854;2023-04-10T10:54:32;9.88;;;5.20;;
73452;SDS011;61687;56.232;43.854;2023-04-10T10:56:59;11.63;;;6.60;;
73452;SDS011;61687;56.232;43.854;2023-04-10T11:04:44;11.03;;;5.40;;
73452;SDS011;61687;56.232;43.854;2023-04-10T11:07:12;9.77;;;6.30;;
73452;SDS011;61687;56.232;43.854;2023-04-10T11:12:24;11.15;;;5.50;;
73452;SDS011;61687;56.232;43.854;2023-04-10T11:14:57;15.02;;;6.53;;
73452;SDS011;61687;56.232;43.854;2023-04-10T11:18:07;12.20;;;5.90;;
73452;SDS011;61687;56.232;43.854;2023-04-10T11:20:15;9.82;;;5.82;;
73452;SDS011;61687;56.232;43.854;2023-04-10T11:23:10;26.92;;;7.30;;
73452;SDS011;61687;56.232;43.854;2023-04-10T11:25:50;13.15;;;5.35;;
73452;SDS011;61687;56.232;43.854;2023-04-10T11:28:35;20.90;;;6.88;;
73452;SDS011;61687;56.232;43.854;2023-04-10T11:31:21;22.93;;;6.07;;
73452;SDS011;61687;56.232;43.854;2023-04-10T11:33:49;13.25;;;5.97;;
73452;SDS011;61687;56.232;43.854;2023-04-10T11:36:25;16.48;;;5.55;;
73452;SDS011;61687;56.232;43.854;2023-04-10T11:38:55;8.38;;;5.38;;
73452;SDS011;61687;56.232;43.854;2023-04-10T11:41:30;12.02;;;4.93;;
73452;SDS011;61687;56.232;43.854;2023-04-10T11:43:59;17.97;;;6.00;;
73452;SDS011;61687;56.232;43.854;2023-04-10T11:46:27;9.68;;;4.85;;
73452;SDS011;61687;56.232;43.854;2023-04-10T11:48:58;7.18;;;4.80;;
73452;SDS011;61687;56.232;43.854;2023-04-10T11:51:26;9.85;;;5.38;;
73452;SDS011;61687;56.232;43.854;2023-04-10T11:54:08;9.57;;;5.03;;
73452;SDS011;61687;56.232;43.854;2023-04-10T11:56:39;8.77;;;5.77;;
73452;SDS011;61687;56.232;43.854;2023-04-10T11:59:06;14.73;;;6.82;;
73452;SDS011;61687;56.232;43.854;2023-04-10T12:01:38;17.52;;;5.05;;
73452;SDS011;61687;56.232;43.854;2023-04-10T12:04:14;12.15;;;5.30;;
73452;SDS011;61687;56.232;43.854;2023-04-10T12:09:14;10.60;;;4.93;;
73452;SDS011;61687;56.232;43.854;2023-04-10T12:11:53;12.52;;;5.72;;
73452;SDS011;61687;56.232;43.854;2023-04-10T12:14:31;9.93;;;5.22;;
73452;SDS011;61687;56.232;43.854;2023-04-10T12:17:03;10.25;;;5.78;;
73452;SDS011;61687;56.232;43.854;2023-04-10T12:19:31;10.52;;;5.15;;
73452;SDS011;61687;56.232;43.854;2023-04-10T12:21:58;11.37;;;4.70;;
73452;SDS011;61687;56.232;43.854;2023-04-10T12:24:45;10.00;;;5.57;;
73452;SDS011;61687;56.232;43.854;2023-04-10T12:27:16;10.43;;;5.40;;
73452;SDS011;61687;56.232;43.854;2023-04-10T12:29:44;14.27;;;5.13;;
73452;SDS011;61687;56.232;43.854;2023-04-10T12:32:11;11.05;;;5.20;;
73452;SDS011;61687;56.232;43.854;2023-04-10T12:34:37;11.60;;;5.37;;
73452;SDS011;61687;56.232;43.854;2023-04-10T12:37:03;18.10;;;6.47;;
73452;SDS011;61687;56.232;43.854;2023-04-10T12:39:29;11.15;;;5.95;;
73452;SDS011;61687;56.232;43.854;2023-04-10T12:42:11;11.60;;;6.10;;
73452;SDS011;61687;56.232;43.854;2023-04-10T12:44:54;9.02;;;5.20;;
73452;SDS011;61687;56.232;43.854;2023-04-10T12:47:21;10.73;;;5.17;;
73452;SDS011;61687;56.232;43.854;2023-04-10T12:50:07;27.23;;;5.80;;
73452;SDS011;61687;56.232;43.854;2023-04-10T12:52:33;10.43;;;5.18;;
73452;SDS011;61687;56.232;43.854;2023-04-10T12:55:14;12.43;;;5.25;;
73452;SDS011;61687;56.232;43.854;2023-04-10T12:57:40;64.45;;;8.48;;
73452;SDS011;61687;56.232;43.854;2023-04-10T13:00:08;10.07;;;5.67;;
73452;SDS011;61687;56.232;43.854;2023-04-10T13:02:35;48.13;;;6.80;;
73452;SDS011;61687;56.232;43.854;2023-04-10T13:05:02;10.90;;;5.95;;
73452;SDS011;61687;56.232;43.854;2023-04-10T13:07:29;23.38;;;6.28;;
73452;SDS011;61687;56.232;43.854;2023-04-10T13:09:56;10.98;;;5.72;;
73452;SDS011;61687;56.232;43.854;2023-04-10T13:12:23;13.17;;;5.70;;
73452;SDS011;61687;56.232;43.854;2023-04-10T13:14:50;9.18;;;6.10;;
73452;SDS011;61687;56.232;43.854;2023-04-10T13:17:27;13.60;;;5.60;;
73452;SDS011;61687;56.232;43.854;2023-04-10T13:19:53;34.22;;;6.72;;
73452;SDS011;61687;56.232;43.854;2023-04-10T13:22:19;9.43;;;6.03;;
73452;SDS011;61687;56.232;43.854;2023-04-10T13:24:45;9.00;;;5.18;;
73452;SDS011;61687;56.232;43.854;2023-04-10T13:27:12;12.45;;;5.40;;
73452;SDS011;61687;56.232;43.854;2023-04-10T13:29:39;14.82;;;5.15;;
73452;SDS011;61687;56.232;43.854;2023-04-10T13:32:06;21.73;;;5.60;;
73452;SDS011;61687;56.232;43.854;2023-04-10T13:34:32;13.73;;;5.60;;
73452;SDS011;61687;56.232;43.854;2023-04-10T13:36:58;13.05;;;5.63;;
73452;SDS011;61687;56.232;43.854;2023-04-10T13:39:25;17.17;;;5.57;;
73452;SDS011;61687;56.232;43.854;2023-04-10T13:41:53;9.15;;;5.03;;
73452;SDS011;61687;56.232;43.854;2023-04-10T13:44:19;9.93;;;5.53;;
73452;SDS011;61687;56.232;43.854;2023-04-10T13:46:45;12.60;;;5.27;;
73452;SDS011;61687;56.232;43.854;2023-04-10T13:49:11;11.25;;;5.05;;
73452;SDS011;61687;56.232;43.854;2023-04-10T13:51:41;11.90;;;6.07;;
73452;SDS011;61687;56.232;43.854;2023-04-10T13:54:07;13.85;;;6.40;;
73452;SDS011;61687;56.232;43.854;2023-04-10T13:56:35;13.90;;;5.22;;
73452;SDS011;61687;56.232;43.854;2023-04-10T13:59:01;13.50;;;5.87;;
73452;SDS011;61687;56.232;43.854;2023-04-10T14:01:27;14.57;;;6.32;;
73452;SDS011;61687;56.232;43.854;2023-04-10T14:03:53;9.27;;;6.03;;
73452;SDS011;61687;56.232;43.854;2023-04-10T14:06:19;16.67;;;7.00;;
73452;SDS011;61687;56.232;43.854;2023-04-10T14:08:45;12.03;;;5.73;;
73452;SDS011;61687;56.232;43.854;2023-04-10T14:11:11;40.78;;;6.70;;
73452;SDS011;61687;56.232;43.854;2023-04-10T14:13:37;10.20;;;6.68;;
73452;SDS011;61687;56.232;43.854;2023-04-10T14:16:03;16.17;;;6.20;;
73452;SDS011;61687;56.232;43.854;2023-04-10T14:18:29;15.57;;;6.10;;
73452;SDS011;61687;56.232;43.854;2023-04-10T14:20:55;15.45;;;5.85;;
73452;SDS011;61687;56.232;43.854;2023-04-10T14:23:21;13.38;;;6.55;;
73452;SDS011;61687;56.232;43.854;2023-04-10T14:25:47;26.83;;;6.55;;
73452;SDS011;61687;56.232;43.854;2023-04-10T14:28:14;45.30;;;9.03;;
73452;SDS011;61687;56.232;43.854;2023-04-10T14:30:47;30.42;;;6.78;;
73452;SDS011;61687;56.232;43.854;2023-04-10T14:33:14;28.20;;;7.38;;
73452;SDS011;61687;56.232;43.854;2023-04-10T14:35:41;16.92;;;6.03;;
73452;SDS011;61687;56.232;43.854;2023-04-10T14:38:08;15.23;;;6.15;;
73452;SDS011;61687;56.232;43.854;2023-04-10T14:40:34;9.90;;;6.70;;
73452;SDS011;61687;56.232;43.854;2023-04-10T14:43:01;15.52;;;6.63;;
73452;SDS011;61687;56.232;43.854;2023-04-10T14:45:27;13.00;;;7.18;;
73452;SDS011;61687;56.232;43.854;2023-04-10T14:47:53;8.90;;;6.30;;
73452;SDS011;61687;56.232;43.854;2023-04-10T14:50:19;16.37;;;6.53;;
73452;SDS011;61687;56.232;43.854;2023-04-10T14:52:45;19.40;;;6.15;;
73452;SDS011;61687;56.232;43.854;2023-04-10T14:55:11;14.32;;;6.57;;
73452;SDS011;61687;56.232;43.854;2023-04-10T14:57:38;15.07;;;6.82;;
73452;SDS011;61687;56.232;43.854;2023-04-10T15:00:04;10.32;;;5.50;;
73452;SDS011;61687;56.232;43.854;2023-04-10T15:02:31;10.47;;;5.57;;
73452;SDS011;61687;56.232;43.854;2023-04-10T15:04:57;19.90;;;6.10;;
73452;SDS011;61687;56.232;43.854;2023-04-10T15:07:23;21.25;;;6.18;;
73452;SDS011;61687;56.232;43.854;2023-04-10T15:09:49;15.77;;;6.20;;
73452;SDS011;61687;56.232;43.854;2023-04-10T15:12:15;15.60;;;5.20;;
73452;SDS011;61687;56.232;43.854;2023-04-10T15:14:41;13.33;;;5.10;;
73452;SDS011;61687;56.232;43.854;2023-04-10T15:17:07;14.18;;;6.25;;
73452;SDS011;61687;56.232;43.854;2023-04-10T15:19:33;19.67;;;5.15;;
73452;SDS011;61687;56.232;43.854;2023-04-10T15:21:59;14.98;;;5.38;;
73452;SDS011;61687;56.232;43.854;2023-04-10T15:24:25;17.97;;;5.80;;